createdAt,value
2019-05-17T00:01:16.640Z,6.53
2019-05-17T00:03:46.955Z,7.87
2019-05-17T00:06:13.916Z,7.10
2019-05-17T00:08:41.420Z,7.53
2019-05-17T00:11:08.868Z,7.67
2019-05-17T00:13:38.500Z,7.53
2019-05-17T00:16:07.267Z,7.70
2019-05-17T00:18:36.901Z,7.40
2019-05-17T00:21:07.512Z,6.53
2019-05-17T00:23:34.330Z,7.70
2019-05-17T00:26:01.785Z,7.80
2019-05-17T00:28:29.839Z,7.50
2019-05-17T00:30:57.418Z,7.28
2019-05-17T00:33:27.073Z,5.87
2019-05-17T00:35:56.274Z,6.60
2019-05-17T00:38:23.818Z,6.80
2019-05-17T00:40:51.549Z,7.60
2019-05-17T00:43:19.328Z,6.37
2019-05-17T00:45:46.946Z,6.53
2019-05-17T00:48:16.934Z,7.10
2019-05-17T00:50:44.077Z,6.95
2019-05-17T00:53:11.521Z,7.15
2019-05-17T00:55:39.018Z,6.83
2019-05-17T00:58:07.083Z,7.55
2019-05-17T01:00:37.634Z,6.55
2019-05-17T01:03:06.793Z,8.40
2019-05-17T01:05:33.897Z,7.50
2019-05-17T01:08:02.183Z,6.95
2019-05-17T01:10:29.687Z,6.97
2019-05-17T01:12:57.649Z,7.15
2019-05-17T01:15:27.184Z,7.58
2019-05-17T01:17:56.305Z,7.40
2019-05-17T01:20:23.781Z,7.75
2019-05-17T01:22:51.419Z,7.08
2019-05-17T01:25:18.903Z,6.97
2019-05-17T01:27:47.426Z,7.15
2019-05-17T01:30:17.548Z,6.65
2019-05-17T01:32:46.466Z,7.67
2019-05-17T01:35:16.491Z,7.25
2019-05-17T01:37:43.643Z,7.75
2019-05-17T01:40:11.229Z,8.63
2019-05-17T01:42:38.633Z,8.38
2019-05-17T01:45:07.230Z,9.63
2019-05-17T01:47:36.782Z,9.08
2019-05-17T01:50:06.649Z,9.38
2019-05-17T01:52:34.232Z,8.13
2019-05-17T01:55:02.404Z,9.23
2019-05-17T01:57:30.140Z,9.03
2019-05-17T01:59:57.738Z,8.68
2019-05-17T02:02:30.019Z,8.55
2019-05-17T02:04:57.557Z,8.83
2019-05-17T02:07:26.780Z,9.30
2019-05-17T02:09:56.708Z,9.63
2019-05-17T02:12:23.650Z,8.83
2019-05-17T02:14:51.168Z,8.93
2019-05-17T02:17:18.594Z,9.95
2019-05-17T02:19:46.581Z,8.60
2019-05-17T02:22:16.573Z,8.85
2019-05-17T02:24:46.303Z,9.03
2019-05-17T02:27:13.481Z,9.28
2019-05-17T02:29:42.417Z,8.68
2019-05-17T02:32:12.838Z,9.00
2019-05-17T02:34:42.793Z,9.15
2019-05-17T02:37:08.906Z,8.78
2019-05-17T02:39:52.570Z,8.38
2019-05-17T02:42:06.176Z,7.90
2019-05-17T02:44:33.820Z,8.38
2019-05-17T02:47:03.170Z,9.13
2019-05-17T02:49:33.151Z,8.20
2019-05-17T02:52:03.106Z,8.58
2019-05-17T02:54:32.580Z,8.58
2019-05-17T02:56:59.116Z,8.40
2019-05-17T02:59:26.549Z,8.28
2019-05-17T03:01:53.977Z,7.92
2019-05-17T03:04:23.567Z,8.00
2019-05-17T03:06:53.244Z,7.58
2019-05-17T03:09:22.918Z,7.87
2019-05-17T03:11:53.883Z,8.35
2019-05-17T03:14:22.793Z,8.05
2019-05-17T03:16:49.118Z,7.75
2019-05-17T03:19:16.577Z,8.00
2019-05-17T03:21:44.043Z,7.95
2019-05-17T03:24:13.694Z,7.65
2019-05-17T03:26:43.030Z,8.05
2019-05-17T03:29:13.353Z,8.13
2019-05-17T03:31:44.674Z,7.67
2019-05-17T03:34:15.909Z,8.88
2019-05-17T03:36:38.874Z,6.75
2019-05-17T03:39:06.804Z,8.10
2019-05-17T03:41:34.854Z,7.67
2019-05-17T03:44:03.284Z,8.43
2019-05-17T03:46:33.418Z,7.72
2019-05-17T03:49:03.483Z,7.53
2019-05-17T03:51:29.676Z,7.10
2019-05-17T03:53:57.119Z,7.45
2019-05-17T03:56:24.641Z,7.50
2019-05-17T03:58:53.269Z,8.00
2019-05-17T04:01:23.219Z,7.95
2019-05-17T04:03:52.737Z,8.05
2019-05-17T04:06:19.884Z,7.50
2019-05-17T04:08:47.407Z,7.10
2019-05-17T04:11:26.033Z,7.53
2019-05-17T04:13:44.667Z,7.33
2019-05-17T04:16:13.953Z,7.22
2019-05-17T04:18:43.631Z,6.87
2019-05-17T04:21:12.529Z,6.78
2019-05-17T04:23:42.932Z,6.58
2019-05-17T04:26:13.257Z,7.47
2019-05-17T04:28:43.782Z,7.30
2019-05-17T04:31:13.224Z,7.22
2019-05-17T04:33:42.618Z,6.78
2019-05-17T04:36:09.079Z,7.20
2019-05-17T04:38:36.479Z,8.35
2019-05-17T04:41:04.050Z,7.22
2019-05-17T04:43:33.478Z,7.53
2019-05-17T04:46:02.822Z,6.85
2019-05-17T04:48:32.636Z,8.25
2019-05-17T04:51:02.548Z,7.45
2019-05-17T04:53:32.857Z,7.15
2019-05-17T04:56:02.771Z,7.00
2019-05-17T04:58:29.050Z,8.18
2019-05-17T05:00:56.709Z,8.25
2019-05-17T05:03:24.311Z,7.67
2019-05-17T05:05:53.472Z,7.60
2019-05-17T05:08:22.548Z,7.20
2019-05-17T05:10:53.543Z,8.23
2019-05-17T05:13:22.736Z,7.28
2019-05-17T05:15:52.194Z,8.20
2019-05-17T05:18:21.900Z,7.22
2019-05-17T05:20:49.123Z,8.03
2019-05-17T05:23:16.919Z,7.12
2019-05-17T05:25:44.749Z,6.92
2019-05-17T05:28:12.284Z,7.25
2019-05-17T05:30:42.247Z,6.53
2019-05-17T05:33:09.767Z,6.80
2019-05-17T05:35:37.311Z,6.92
2019-05-17T05:38:04.724Z,7.33
2019-05-17T05:40:32.364Z,7.10
2019-05-17T05:43:02.152Z,6.85
2019-05-17T05:45:29.459Z,7.53
2019-05-17T05:47:57.041Z,7.33
2019-05-17T05:50:24.957Z,7.87
2019-05-17T05:52:52.486Z,6.72
2019-05-17T05:55:23.157Z,7.37
2019-05-17T05:57:49.433Z,7.65
2019-05-17T06:00:17.513Z,6.28
2019-05-17T06:02:44.909Z,7.05
2019-05-17T06:05:16.413Z,6.47
2019-05-17T06:07:42.285Z,7.05
2019-05-17T06:10:12.828Z,6.83
2019-05-17T06:12:42.945Z,7.35
2019-05-17T06:15:12.361Z,6.92
2019-05-17T06:17:39.554Z,6.50
2019-05-17T06:20:07.346Z,6.30
2019-05-17T06:22:34.747Z,6.70
2019-05-17T06:25:03.752Z,6.58
2019-05-17T06:27:32.142Z,6.47
2019-05-17T06:30:01.486Z,7.03
2019-05-17T06:32:31.670Z,6.78
2019-05-17T06:34:58.900Z,6.58
2019-05-17T06:37:26.455Z,7.47
2019-05-17T06:39:53.981Z,7.03
2019-05-17T06:42:37.006Z,6.97
2019-05-17T06:44:52.387Z,7.10
2019-05-17T06:47:19.923Z,6.53
2019-05-17T06:49:50.395Z,6.67
2019-05-17T06:52:16.985Z,6.50
2019-05-17T06:54:44.444Z,6.40
2019-05-17T06:57:12.777Z,6.20
2019-05-17T06:59:40.500Z,7.12
2019-05-17T07:02:10.362Z,6.58
2019-05-17T07:04:39.390Z,9.85
2019-05-17T07:07:24.947Z,12.43
2019-05-17T07:09:52.432Z,9.48
2019-05-17T07:12:20.334Z,6.83
2019-05-17T07:14:50.567Z,7.12
2019-05-17T07:17:19.699Z,6.92
2019-05-17T07:19:47.248Z,7.12
2019-05-17T07:22:15.011Z,6.70
2019-05-17T07:24:42.793Z,6.30
2019-05-17T07:27:10.357Z,6.10
2019-05-17T07:29:40.184Z,6.87
2019-05-17T07:32:09.693Z,6.87
2019-05-17T07:34:36.805Z,7.33
2019-05-17T07:37:04.357Z,6.28
2019-05-17T07:39:31.885Z,6.58
2019-05-17T07:42:00.003Z,7.30
2019-05-17T07:44:29.438Z,6.45
2019-05-17T07:46:56.969Z,6.65
2019-05-17T07:49:24.610Z,6.65
2019-05-17T07:51:52.149Z,6.87
2019-05-17T07:54:19.814Z,6.70
2019-05-17T07:56:47.545Z,6.45
2019-05-17T07:59:15.632Z,7.17
2019-05-17T08:01:43.050Z,6.35
2019-05-17T08:04:10.681Z,6.25
2019-05-17T08:06:40.346Z,5.60
2019-05-17T08:09:13.250Z,6.00
2019-05-17T08:11:39.515Z,6.00
2019-05-17T08:14:06.553Z,6.85
2019-05-17T08:16:34.665Z,5.47
2019-05-17T08:19:02.085Z,6.60
2019-05-17T08:21:30.500Z,5.28
2019-05-17T08:24:00.057Z,6.08
2019-05-17T08:26:29.661Z,6.15
2019-05-17T08:29:00.348Z,6.47
2019-05-17T08:31:29.430Z,6.72
2019-05-17T08:33:57.352Z,6.78
2019-05-17T08:36:24.789Z,5.85
2019-05-17T08:38:52.218Z,6.37
2019-05-17T08:41:20.844Z,6.35
2019-05-17T08:43:51.119Z,6.53
2019-05-17T08:46:19.929Z,7.50
2019-05-17T08:48:49.396Z,7.05
2019-05-17T08:51:16.750Z,7.12
2019-05-17T08:53:44.201Z,7.17
2019-05-17T08:56:11.973Z,7.05
2019-05-17T08:58:40.405Z,6.50
2019-05-17T09:01:10.923Z,7.00
2019-05-17T09:03:38.204Z,6.78
2019-05-17T09:06:05.804Z,7.05
2019-05-17T09:08:33.333Z,7.40
2019-05-17T09:11:01.034Z,7.83
2019-05-17T09:13:29.791Z,7.40
2019-05-17T09:15:57.510Z,7.00
2019-05-17T09:18:25.452Z,7.53
2019-05-17T09:20:52.973Z,7.40
2019-05-17T09:23:20.467Z,7.50
2019-05-17T09:25:49.914Z,7.33
2019-05-17T09:28:17.364Z,6.78
2019-05-17T09:30:45.125Z,7.50
2019-05-17T09:33:12.646Z,7.62
2019-05-17T09:35:40.835Z,7.47
2019-05-17T09:38:10.127Z,6.87
2019-05-17T09:40:40.141Z,6.95
2019-05-17T09:43:10.294Z,6.62
2019-05-17T09:45:40.003Z,6.70
2019-05-17T09:48:09.969Z,6.10
2019-05-17T09:50:36.722Z,7.22
2019-05-17T09:53:04.164Z,7.55
2019-05-17T09:55:32.498Z,7.25
2019-05-17T09:58:00.379Z,7.42
2019-05-17T10:00:29.706Z,7.17
2019-05-17T10:02:57.932Z,6.65
2019-05-17T10:05:26.751Z,6.83
2019-05-17T10:07:54.464Z,7.60
2019-05-17T10:10:22.062Z,7.97
2019-05-17T10:12:50.018Z,6.90
2019-05-17T10:15:17.747Z,7.85
2019-05-17T10:17:45.291Z,10.20
2019-05-17T10:20:12.837Z,7.33
2019-05-17T10:22:40.449Z,7.28
2019-05-17T10:25:09.706Z,7.08
2019-05-17T10:27:37.464Z,7.05
2019-05-17T10:30:05.232Z,6.90
2019-05-17T10:32:33.040Z,6.00
2019-05-17T10:35:00.615Z,6.65
2019-05-17T10:37:30.189Z,6.95
2019-05-17T10:39:57.662Z,6.78
2019-05-17T10:42:25.371Z,6.70
2019-05-17T10:44:54.780Z,7.47
2019-05-17T10:47:22.404Z,6.72
2019-05-17T10:49:50.157Z,6.87
2019-05-17T10:52:20.159Z,6.55
2019-05-17T10:54:47.064Z,7.37
2019-05-17T10:57:14.468Z,6.72
2019-05-17T10:59:42.077Z,7.35
2019-05-17T11:02:10.133Z,7.12
2019-05-17T11:04:40.043Z,6.15
2019-05-17T11:07:07.088Z,6.80
2019-05-17T11:09:34.884Z,6.37
2019-05-17T11:12:02.376Z,6.75
2019-05-17T11:14:29.910Z,6.17
2019-05-17T11:16:57.473Z,6.55
2019-05-17T11:19:25.122Z,5.37
2019-05-17T11:21:52.723Z,6.25
2019-05-17T11:24:20.239Z,5.35
2019-05-17T11:26:47.848Z,5.70
2019-05-17T11:29:15.321Z,6.33
2019-05-17T11:31:42.813Z,7.25
2019-05-17T11:34:10.341Z,6.42
2019-05-17T11:36:38.062Z,5.72
2019-05-17T11:39:06.667Z,6.15
2019-05-17T11:41:34.392Z,6.10
2019-05-17T11:44:04.674Z,6.30
2019-05-17T11:46:36.226Z,5.50
2019-05-17T11:49:02.187Z,5.65
2019-05-17T11:51:30.363Z,5.58
2019-05-17T11:53:58.135Z,5.60
2019-05-17T11:56:26.080Z,5.10
2019-05-17T11:58:53.887Z,5.45
2019-05-17T12:01:21.444Z,5.50
2019-05-17T12:03:48.922Z,5.15
2019-05-17T12:06:16.394Z,4.47
2019-05-17T12:08:44.660Z,5.78
2019-05-17T12:11:12.080Z,5.10
2019-05-17T12:13:42.955Z,5.45
2019-05-17T12:16:09.005Z,4.00
2019-05-17T12:18:37.174Z,4.58
2019-05-17T12:21:04.714Z,4.97
2019-05-17T12:23:32.239Z,3.80
2019-05-17T12:26:00.352Z,4.45
2019-05-17T12:28:27.889Z,3.90
2019-05-17T12:30:55.525Z,3.87
2019-05-17T12:33:23.672Z,3.58
2019-05-17T12:35:51.503Z,3.62
2019-05-17T12:38:19.035Z,3.92
2019-05-17T12:40:46.773Z,4.33
2019-05-17T12:43:14.439Z,3.70
2019-05-17T12:45:42.224Z,3.62
2019-05-17T12:48:10.137Z,3.60
2019-05-17T12:50:37.582Z,3.77
2019-05-17T12:53:05.392Z,3.77
2019-05-17T12:55:32.979Z,3.00
2019-05-17T12:58:00.516Z,3.40
2019-05-17T13:00:27.955Z,2.72
2019-05-17T13:02:56.771Z,3.00
2019-05-17T13:05:24.575Z,3.27
2019-05-17T13:07:52.040Z,2.85
2019-05-17T13:10:19.533Z,2.67
2019-05-17T13:12:47.339Z,2.87
2019-05-17T13:15:16.189Z,2.80
2019-05-17T13:17:43.959Z,2.70
2019-05-17T13:20:13.671Z,2.58
2019-05-17T13:22:41.745Z,2.83
2019-05-17T13:25:09.717Z,2.65
2019-05-17T13:27:39.231Z,2.90
2019-05-17T13:30:08.475Z,2.80
2019-05-17T13:32:36.076Z,2.65
2019-05-17T13:35:04.629Z,2.45
2019-05-17T13:37:32.620Z,2.37
2019-05-17T13:40:00.149Z,2.27
2019-05-17T13:42:28.019Z,2.70
2019-05-17T13:44:55.775Z,2.20
2019-05-17T13:47:23.388Z,2.75
2019-05-17T13:49:50.965Z,2.40
2019-05-17T13:52:18.376Z,3.02
2019-05-17T13:54:45.821Z,3.10
2019-05-17T13:57:14.094Z,3.02
2019-05-17T13:59:41.572Z,2.98
2019-05-17T14:02:09.373Z,2.90
2019-05-17T14:04:37.770Z,2.83
2019-05-17T14:07:05.357Z,2.77
2019-05-17T14:09:32.871Z,2.70
2019-05-17T14:12:00.762Z,2.60
2019-05-17T14:14:28.246Z,2.65
2019-05-17T14:16:56.625Z,2.22
2019-05-17T14:19:24.173Z,2.47
2019-05-17T14:21:52.092Z,2.12
2019-05-17T14:24:19.653Z,2.40
2019-05-17T14:26:47.131Z,3.02
2019-05-17T14:29:15.055Z,2.47
2019-05-17T14:31:42.537Z,2.47
2019-05-17T14:34:09.997Z,3.20
2019-05-17T14:36:37.911Z,2.95
2019-05-17T14:39:06.830Z,2.90
2019-05-17T14:41:34.730Z,2.80
2019-05-17T14:44:02.492Z,2.65
2019-05-17T14:46:30.579Z,2.98
2019-05-17T14:48:58.979Z,3.10
2019-05-17T14:51:27.421Z,3.05
2019-05-17T14:53:54.870Z,2.87
2019-05-17T14:56:22.373Z,2.65
2019-05-17T14:58:50.418Z,3.05
2019-05-17T15:01:17.887Z,2.55
2019-05-17T15:03:46.563Z,2.55
2019-05-17T15:06:14.180Z,2.55
2019-05-17T15:08:41.947Z,2.92
2019-05-17T15:11:10.462Z,2.40
2019-05-17T15:13:38.560Z,3.08
2019-05-17T15:16:06.947Z,2.80
2019-05-17T15:18:34.462Z,10.43
2019-05-17T15:21:02.834Z,4.50
2019-05-17T15:23:30.489Z,2.95
2019-05-17T15:25:58.503Z,3.05
2019-05-17T15:28:26.212Z,2.55
2019-05-17T15:30:54.549Z,2.80
2019-05-17T15:33:22.721Z,2.70
2019-05-17T15:35:50.555Z,2.98
2019-05-17T15:38:18.401Z,3.02
2019-05-17T15:40:46.901Z,2.83
2019-05-17T15:43:15.748Z,2.40
2019-05-17T15:45:43.787Z,2.87
2019-05-17T15:48:15.480Z,2.70
2019-05-17T15:50:42.928Z,2.75
2019-05-17T15:53:10.509Z,2.65
2019-05-17T15:55:37.953Z,2.92
2019-05-17T15:58:05.397Z,3.40
2019-05-17T16:00:33.360Z,2.27
2019-05-17T16:03:00.954Z,2.58
2019-05-17T16:05:29.394Z,1.98
2019-05-17T16:07:56.971Z,2.45
2019-05-17T16:10:24.682Z,2.27
2019-05-17T16:13:02.372Z,2.70
2019-05-17T16:15:23.180Z,2.40
2019-05-17T16:17:51.087Z,2.77
2019-05-17T16:20:18.677Z,2.10
2019-05-17T16:22:46.487Z,2.92
2019-05-17T16:25:13.999Z,2.62
2019-05-17T16:27:41.890Z,2.20
2019-05-17T16:30:09.658Z,2.40
2019-05-17T16:32:38.047Z,3.00
2019-05-17T16:35:06.308Z,2.75
2019-05-17T16:37:33.813Z,2.60
2019-05-17T16:40:02.126Z,2.85
2019-05-17T16:42:29.602Z,2.33
2019-05-17T16:44:57.043Z,2.47
2019-05-17T16:47:25.920Z,2.62
2019-05-17T16:49:53.642Z,2.95
2019-05-17T16:52:21.126Z,2.83
2019-05-17T16:54:49.046Z,2.67
2019-05-17T16:57:17.054Z,2.92
2019-05-17T16:59:44.480Z,3.00
2019-05-17T17:02:12.169Z,3.17
2019-05-17T17:04:39.693Z,2.90
2019-05-17T17:07:07.640Z,2.70
2019-05-17T17:09:35.151Z,2.60
2019-05-17T17:12:02.685Z,2.47
2019-05-17T17:14:30.576Z,2.83
2019-05-17T17:16:58.570Z,2.67
2019-05-17T17:19:26.003Z,2.35
2019-05-17T17:21:54.273Z,2.30
2019-05-17T17:24:21.702Z,2.60
2019-05-17T17:26:49.408Z,2.65
2019-05-17T17:29:18.500Z,2.52
2019-05-17T17:31:45.896Z,3.52
2019-05-17T17:34:13.731Z,3.27
2019-05-17T17:36:41.804Z,2.62
2019-05-17T17:39:09.210Z,2.30
2019-05-17T17:41:36.872Z,2.67
2019-05-17T17:44:04.357Z,2.40
2019-05-17T17:46:32.550Z,2.42
2019-05-17T17:49:00.120Z,2.70
2019-05-17T17:51:27.792Z,2.52
2019-05-17T17:53:55.736Z,2.70
2019-05-17T17:56:23.574Z,3.45
2019-05-17T17:58:52.084Z,3.08
2019-05-17T18:01:20.091Z,3.00
2019-05-17T18:03:47.727Z,2.58
2019-05-17T18:06:15.610Z,2.58
2019-05-17T18:08:43.561Z,2.62
2019-05-17T18:11:11.398Z,2.47
2019-05-17T18:13:39.250Z,2.47
2019-05-17T18:16:06.857Z,2.40
2019-05-17T18:18:34.499Z,2.58
2019-05-17T18:21:02.395Z,2.70
2019-05-17T18:23:29.997Z,3.83
2019-05-17T18:25:58.211Z,3.05
2019-05-17T18:28:27.676Z,2.60
2019-05-17T18:30:55.559Z,6.25
2019-05-17T18:33:23.378Z,4.70
2019-05-17T18:35:51.241Z,3.00
2019-05-17T18:38:22.605Z,2.60
2019-05-17T18:40:50.171Z,2.10
2019-05-17T18:43:18.426Z,2.08
2019-05-17T18:45:46.351Z,2.60
2019-05-17T18:48:14.769Z,2.30
2019-05-17T18:50:42.889Z,2.15
2019-05-17T18:53:16.806Z,2.40
2019-05-17T18:55:40.874Z,3.10
2019-05-17T18:58:10.157Z,2.40
2019-05-17T19:00:37.933Z,2.30
2019-05-17T19:03:05.791Z,2.20
2019-05-17T19:05:34.377Z,2.47
2019-05-17T19:08:02.001Z,2.77
2019-05-17T19:10:30.107Z,2.95
2019-05-17T19:12:58.841Z,2.37
2019-05-17T19:15:26.693Z,2.33
2019-05-17T19:17:54.905Z,2.22
2019-05-17T19:20:22.685Z,2.72
2019-05-17T19:22:50.373Z,3.02
2019-05-17T19:25:17.907Z,2.75
2019-05-17T19:27:45.907Z,2.45
2019-05-17T19:30:13.830Z,3.05
2019-05-17T19:32:41.450Z,2.83
2019-05-17T19:35:09.278Z,2.92
2019-05-17T19:37:36.786Z,2.98
2019-05-17T19:40:06.219Z,3.40
2019-05-17T19:42:33.774Z,3.00
2019-05-17T19:45:01.652Z,3.00
2019-05-17T19:47:29.183Z,3.15
2019-05-17T19:49:56.802Z,3.30
2019-05-17T19:52:24.690Z,3.10
2019-05-17T19:54:52.492Z,2.92
2019-05-17T19:57:20.193Z,3.40
2019-05-17T19:59:47.759Z,3.30
2019-05-17T20:02:15.530Z,3.27
2019-05-17T20:04:43.154Z,3.30
2019-05-17T20:07:11.041Z,3.75
2019-05-17T20:09:38.864Z,4.95
2019-05-17T20:12:06.443Z,4.50
2019-05-17T20:14:34.421Z,4.05
2019-05-17T20:17:02.256Z,3.98
2019-05-17T20:19:29.816Z,3.62
2019-05-17T20:21:57.356Z,3.45
2019-05-17T20:24:25.261Z,3.47
2019-05-17T20:26:53.731Z,3.60
2019-05-17T20:29:21.636Z,3.55
2019-05-17T20:31:49.193Z,3.10
2019-05-17T20:34:17.018Z,2.95
2019-05-17T20:36:44.767Z,3.40
2019-05-17T20:39:12.314Z,3.85
2019-05-17T20:41:40.019Z,2.55
2019-05-17T20:44:07.687Z,3.42
2019-05-17T20:46:35.738Z,3.02
2019-05-17T20:49:03.842Z,3.12
2019-05-17T20:51:31.480Z,3.72
2019-05-17T20:53:59.699Z,3.67
2019-05-17T20:56:32.999Z,3.98
2019-05-17T20:58:57.106Z,3.62
2019-05-17T21:01:25.491Z,3.67
2019-05-17T21:03:53.053Z,3.58
2019-05-17T21:06:21.231Z,3.65
2019-05-17T21:08:48.864Z,3.60
2019-05-17T21:11:16.373Z,3.25
2019-05-17T21:13:43.830Z,3.55
2019-05-17T21:16:11.738Z,3.33
2019-05-17T21:18:39.694Z,3.50
2019-05-17T21:21:07.286Z,3.12
2019-05-17T21:23:34.809Z,3.50
2019-05-17T21:26:02.378Z,4.08
2019-05-17T21:28:29.940Z,3.52
2019-05-17T21:30:57.666Z,3.83
2019-05-17T21:33:25.595Z,4.45
2019-05-17T21:35:53.843Z,4.10
2019-05-17T21:38:21.347Z,3.80
2019-05-17T21:40:49.139Z,3.67
2019-05-17T21:43:16.881Z,3.87
2019-05-17T21:45:45.317Z,4.00
2019-05-17T21:48:12.781Z,3.70
2019-05-17T21:50:40.232Z,3.83
2019-05-17T21:53:08.401Z,3.67
2019-05-17T21:55:35.840Z,4.03
2019-05-17T21:58:03.988Z,4.17
2019-05-17T22:01:00.064Z,3.98
2019-05-17T22:03:27.512Z,3.62
2019-05-17T22:05:55.178Z,3.80
2019-05-17T22:08:23.328Z,3.33
2019-05-17T22:10:50.939Z,4.53
2019-05-17T22:13:18.362Z,4.35
2019-05-17T22:15:45.892Z,4.37
2019-05-17T22:18:14.524Z,4.20
2019-05-17T22:20:41.955Z,4.45
2019-05-17T22:23:09.994Z,4.78
2019-05-17T22:25:37.550Z,4.17
2019-05-17T22:28:05.207Z,4.03
2019-05-17T22:30:32.881Z,4.10
2019-05-17T22:33:00.553Z,3.85
2019-05-17T22:35:28.027Z,3.90
2019-05-17T22:37:55.507Z,4.75
2019-05-17T22:40:23.124Z,4.97
2019-05-17T22:42:50.537Z,4.87
2019-05-17T22:45:17.965Z,5.05
2019-05-17T22:47:45.349Z,4.70
2019-05-17T22:50:13.347Z,4.45
2019-05-17T22:52:40.833Z,5.00
2019-05-17T22:55:08.584Z,4.85
2019-05-17T22:57:36.422Z,5.10
2019-05-17T23:00:04.552Z,4.55
2019-05-17T23:02:32.467Z,4.70
2019-05-17T23:05:00.028Z,4.80
2019-05-17T23:07:27.588Z,4.22
2019-05-17T23:09:55.174Z,5.33
2019-05-17T23:12:23.078Z,4.40
2019-05-17T23:14:50.576Z,4.72
2019-05-17T23:17:18.015Z,4.72
2019-05-17T23:19:45.545Z,4.37
2019-05-17T23:22:13.239Z,3.95
2019-05-17T23:24:41.065Z,4.78
2019-05-17T23:27:08.918Z,4.45
2019-05-17T23:29:36.574Z,4.45
2019-05-17T23:32:04.055Z,4.92
2019-05-17T23:34:31.557Z,4.53
2019-05-17T23:36:59.413Z,5.05
2019-05-17T23:39:27.128Z,4.90
2019-05-17T23:41:54.680Z,5.55
2019-05-17T23:44:22.312Z,5.65
2019-05-17T23:46:50.207Z,5.83
2019-05-17T23:49:17.861Z,5.97
2019-05-17T23:51:45.336Z,6.00
2019-05-17T23:54:12.886Z,5.50
2019-05-17T23:56:40.542Z,5.50
2019-05-17T23:59:08.179Z,6.65
